sensor_id;sensor_type;location;lat;lon;timestamp;temperature;humidity
61400;DHT22;47269;48.182;-1.946;2023-08-31T06:02:24;15.20;99.90
61400;DHT22;47269;48.182;-1.946;2023-08-31T06:04:50;15.30;99.90
61400;DHT22;47269;48.182;-1.946;2023-08-31T06:07:16;15.30;99.90
61400;DHT22;47269;48.182;-1.946;2023-08-31T06:09:41;15.30;99.90
61400;DHT22;47269;48.182;-1.946;2023-08-31T06:12:07;15.50;99.90
61400;DHT22;47269;48.182;-1.946;2023-08-31T06:14:32;15.40;99.90
61400;DHT22;47269;48.182;-1.946;2023-08-31T06:16:58;15.30;99.90
61400;DHT22;47269;48.182;-1.946;2023-08-31T06:19:24;15.40;99.90
61400;DHT22;47269;48.182;-1.946;2023-08-31T06:21:50;15.50;99.90
61400;DHT22;47269;48.182;-1.946;2023-08-31T06:24:15;15.60;99.90
61400;DHT22;47269;48.182;-1.946;2023-08-31T06:26:41;15.60;99.90
61400;DHT22;47269;48.182;-1.946;2023-08-31T06:29:07;15.50;99.90
61400;DHT22;47269;48.182;-1.946;2023-08-31T06:31:36;15.40;99.90
61400;DHT22;47269;48.182;-1.946;2023-08-31T06:34:01;15.40;99.90
61400;DHT22;47269;48.182;-1.946;2023-08-31T06:36:27;15.50;99.90
61400;DHT22;47269;48.182;-1.946;2023-08-31T06:38:53;15.60;99.90
61400;DHT22;47269;48.182;-1.946;2023-08-31T06:41:19;15.60;99.90
61400;DHT22;47269;48.182;-1.946;2023-08-31T06:43:44;15.70;99.90
61400;DHT22;47269;48.182;-1.946;2023-08-31T06:46:11;15.80;99.90
61400;DHT22;47269;48.182;-1.946;2023-08-31T06:48:37;15.80;99.90
61400;DHT22;47269;48.182;-1.946;2023-08-31T06:51:02;15.70;99.90
61400;DHT22;47269;48.182;-1.946;2023-08-31T06:53:30;15.70;99.90
61400;DHT22;47269;48.182;-1.946;2023-08-31T06:55:57;15.70;99.90
61400;DHT22;47269;48.182;-1.946;2023-08-31T06:58:22;15.90;99.90
61400;DHT22;47269;48.182;-1.946;2023-08-31T07:00:48;15.90;99.90
61400;DHT22;47269;48.182;-1.946;2023-08-31T07:03:16;15.90;99.90
61400;DHT22;47269;48.182;-1.946;2023-08-31T07:05:42;16.00;99.90
61400;DHT22;47269;48.182;-1.946;2023-08-31T07:08:08;16.00;99.90
61400;DHT22;47269;48.182;-1.946;2023-08-31T07:10:34;16.00;99.90
61400;DHT22;47269;48.182;-1.946;2023-08-31T07:13:04;16.00;99.90
61400;DHT22;47269;48.182;-1.946;2023-08-31T07:15:30;16.00;99.90
61400;DHT22;47269;48.182;-1.946;2023-08-31T07:17:56;16.10;99.90
61400;DHT22;47269;48.182;-1.946;2023-08-31T07:20:22;16.20;99.90
61400;DHT22;47269;48.182;-1.946;2023-08-31T07:22:48;16.30;99.90
61400;DHT22;47269;48.182;-1.946;2023-08-31T07:25:13;16.30;99.90
61400;DHT22;47269;48.182;-1.946;2023-08-31T07:27:40;16.30;99.90
61400;DHT22;47269;48.182;-1.946;2023-08-31T07:30:06;16.30;99.90
61400;DHT22;47269;48.182;-1.946;2023-08-31T07:32:32;16.40;99.90
61400;DHT22;47269;48.182;-1.946;2023-08-31T07:34:58;16.40;99.90
61400;DHT22;47269;48.182;-1.946;2023-08-31T07:37:23;16.50;99.90
61400;DHT22;47269;48.182;-1.946;2023-08-31T07:39:49;16.60;99.90
61400;DHT22;47269;48.182;-1.946;2023-08-31T07:42:15;16.70;99.90
61400;DHT22;47269;48.182;-1.946;2023-08-31T07:44:40;16.80;99.90
61400;DHT22;47269;48.182;-1.946;2023-08-31T07:47:07;16.80;99.90
61400;DHT22;47269;48.182;-1.946;2023-08-31T07:49:33;16.90;99.90
61400;DHT22;47269;48.182;-1.946;2023-08-31T07:51:59;17.00;99.90
61400;DHT22;47269;48.182;-1.946;2023-08-31T07:54:24;17.00;99.90
61400;DHT22;47269;48.182;-1.946;2023-08-31T07:56:51;17.00;99.90
61400;DHT22;47269;48.182;-1.946;2023-08-31T07:59:17;17.10;99.90
61400;DHT22;47269;48.182;-1.946;2023-08-31T08:01:44;17.10;99.90
61400;DHT22;47269;48.182;-1.946;2023-08-31T08:04:11;17.10;99.90
61400;DHT22;47269;48.182;-1.946;2023-08-31T08:06:36;17.30;99.90
61400;DHT22;47269;48.182;-1.946;2023-08-31T08:09:02;17.20;99.90
61400;DHT22;47269;48.182;-1.946;2023-08-31T08:11:30;17.30;99.90
61400;DHT22;47269;48.182;-1.946;2023-08-31T08:13:56;17.40;99.90
61400;DHT22;47269;48.182;-1.946;2023-08-31T08:16:21;17.40;99.90
61400;DHT22;47269;48.182;-1.946;2023-08-31T08:18:47;17.50;99.90
61400;DHT22;47269;48.182;-1.946;2023-08-31T08:21:13;17.40;99.90
61400;DHT22;47269;48.182;-1.946;2023-08-31T08:23:38;17.50;99.90
61400;DHT22;47269;48.182;-1.946;2023-08-31T08:26:04;17.50;99.90
61400;DHT22;47269;48.182;-1.946;2023-08-31T08:28:30;17.50;99.90
61400;DHT22;47269;48.182;-1.946;2023-08-31T08:30:55;17.50;99.90
61400;DHT22;47269;48.182;-1.946;2023-08-31T08:33:21;17.50;99.90
61400;DHT22;47269;48.182;-1.946;2023-08-31T08:35:47;17.50;99.90
61400;DHT22;47269;48.182;-1.946;2023-08-31T08:38:12;17.80;99.90
61400;DHT22;47269;48.182;-1.946;2023-08-31T08:40:38;17.70;99.90
61400;DHT22;47269;48.182;-1.946;2023-08-31T08:43:06;17.80;99.90
61400;DHT22;47269;48.182;-1.946;2023-08-31T08:45:39;17.80;99.90
61400;DHT22;47269;48.182;-1.946;2023-08-31T08:48:07;17.90;99.90
61400;DHT22;47269;48.182;-1.946;2023-08-31T08:50:34;17.80;99.90
61400;DHT22;47269;48.182;-1.946;2023-08-31T08:53:04;17.80;99.90
61400;DHT22;47269;48.182;-1.946;2023-08-31T08:55:30;17.90;99.90
61400;DHT22;47269;48.182;-1.946;2023-08-31T08:57:58;17.90;99.90
61400;DHT22;47269;48.182;-1.946;2023-08-31T09:00:24;17.80;99.90
61400;DHT22;47269;48.182;-1.946;2023-08-31T09:02:50;17.80;99.90
61400;DHT22;47269;48.182;-1.946;2023-08-31T09:05:16;17.90;99.90
61400;DHT22;47269;48.182;-1.946;2023-08-31T09:08:05;17.90;99.90
61400;DHT22;47269;48.182;-1.946;2023-08-31T09:10:36;18.00;99.90
61400;DHT22;47269;48.182;-1.946;2023-08-31T09:13:05;18.10;99.90
61400;DHT22;47269;48.182;-1.946;2023-08-31T09:15:48;18.10;99.90
61400;DHT22;47269;48.182;-1.946;2023-08-31T09:18:30;18.20;99.90
61400;DHT22;47269;48.182;-1.946;2023-08-31T09:21:00;18.30;99.90
61400;DHT22;47269;48.182;-1.946;2023-08-31T09:23:27;18.30;99.90
61400;DHT22;47269;48.182;-1.946;2023-08-31T09:25:54;18.30;99.90
61400;DHT22;47269;48.182;-1.946;2023-08-31T09:28:22;18.20;99.90
61400;DHT22;47269;48.182;-1.946;2023-08-31T09:30:50;18.40;99.90
61400;DHT22;47269;48.182;-1.946;2023-08-31T09:33:18;18.50;99.90
61400;DHT22;47269;48.182;-1.946;2023-08-31T09:36:07;18.60;99.90
61400;DHT22;47269;48.182;-1.946;2023-08-31T09:38:41;18.80;99.90
61400;DHT22;47269;48.182;-1.946;2023-08-31T09:41:08;18.90;99.90
61400;DHT22;47269;48.182;-1.946;2023-08-31T09:43:34;19.20;99.90
61400;DHT22;47269;48.182;-1.946;2023-08-31T09:46:03;19.20;99.90
61400;DHT22;47269;48.182;-1.946;2023-08-31T09:48:29;19.20;99.90
61400;DHT22;47269;48.182;-1.946;2023-08-31T09:50:56;19.30;99.90
61400;DHT22;47269;48.182;-1.946;2023-08-31T09:53:24;19.50;99.90
61400;DHT22;47269;48.182;-1.946;2023-08-31T09:55:51;19.60;99.90
61400;DHT22;47269;48.182;-1.946;2023-08-31T09:58:19;19.90;99.90
61400;DHT22;47269;48.182;-1.946;2023-08-31T10:00:48;20.30;99.90
61400;DHT22;47269;48.182;-1.946;2023-08-31T10:03:14;20.20;99.90
61400;DHT22;47269;48.182;-1.946;2023-08-31T10:05:43;19.80;99.90
61400;DHT22;47269;48.182;-1.946;2023-08-31T10:08:09;19.60;99.90
61400;DHT22;47269;48.182;-1.946;2023-08-31T10:10:35;19.70;99.90
61400;DHT22;47269;48.182;-1.946;2023-08-31T10:13:01;19.70;99.90
61400;DHT22;47269;48.182;-1.946;2023-08-31T10:15:32;19.80;99.90
61400;DHT22;47269;48.182;-1.946;2023-08-31T10:18:00;19.90;99.90
61400;DHT22;47269;48.182;-1.946;2023-08-31T10:20:26;20.40;99.90
61400;DHT22;47269;48.182;-1.946;2023-08-31T10:22:54;21.10;99.90
61400;DHT22;47269;48.182;-1.946;2023-08-31T10:25:23;20.80;99.90
61400;DHT22;47269;48.182;-1.946;2023-08-31T10:27:49;20.70;99.90
61400;DHT22;47269;48.182;-1.946;2023-08-31T10:30:26;20.50;99.90
61400;DHT22;47269;48.182;-1.946;2023-08-31T10:38:30;20.20;99.90
61400;DHT22;47269;48.182;-1.946;2023-08-31T10:41:03;19.90;99.90
61400;DHT22;47269;48.182;-1.946;2023-08-31T10:43:56;20.10;99.90
61400;DHT22;47269;48.182;-1.946;2023-08-31T10:46:35;20.30;99.90
61400;DHT22;47269;48.182;-1.946;2023-08-31T10:51:36;20.10;99.90
61400;DHT22;47269;48.182;-1.946;2023-08-31T10:59:17;21.10;99.90
61400;DHT22;47269;48.182;-1.946;2023-08-31T11:04:23;21.00;99.90
61400;DHT22;47269;48.182;-1.946;2023-08-31T11:07:18;20.90;99.90
61400;DHT22;47269;48.182;-1.946;2023-08-31T11:09:46;20.70;99.90
61400;DHT22;47269;48.182;-1.946;2023-08-31T11:12:12;20.50;99.90
61400;DHT22;47269;48.182;-1.946;2023-08-31T11:14:39;20.30;99.90
61400;DHT22;47269;48.182;-1.946;2023-08-31T11:17:05;20.30;99.90
61400;DHT22;47269;48.182;-1.946;2023-08-31T11:19:31;20.20;99.90
61400;DHT22;47269;48.182;-1.946;2023-08-31T11:21:59;20.20;99.90
61400;DHT22;47269;48.182;-1.946;2023-08-31T11:24:25;20.30;99.90
61400;DHT22;47269;48.182;-1.946;2023-08-31T11:26:51;20.30;99.90
61400;DHT22;47269;48.182;-1.946;2023-08-31T11:29:17;20.40;99.90
61400;DHT22;47269;48.182;-1.946;2023-08-31T11:31:43;20.60;99.90
61400;DHT22;47269;48.182;-1.946;2023-08-31T11:34:17;21.10;99.90
61400;DHT22;47269;48.182;-1.946;2023-08-31T11:36:45;22.00;99.90
61400;DHT22;47269;48.182;-1.946;2023-08-31T11:39:11;22.60;99.90
61400;DHT22;47269;48.182;-1.946;2023-08-31T11:41:37;22.80;99.90
61400;DHT22;47269;48.182;-1.946;2023-08-31T11:44:08;22.50;99.90
61400;DHT22;47269;48.182;-1.946;2023-08-31T11:46:37;22.30;99.90
61400;DHT22;47269;48.182;-1.946;2023-08-31T11:49:04;22.10;99.90
61400;DHT22;47269;48.182;-1.946;2023-08-31T11:51:31;22.10;99.90
61400;DHT22;47269;48.182;-1.946;2023-08-31T11:53:57;21.80;99.90
61400;DHT22;47269;48.182;-1.946;2023-08-31T11:56:25;22.00;99.90
61400;DHT22;47269;48.182;-1.946;2023-08-31T11:58:51;22.20;99.90
61400;DHT22;47269;48.182;-1.946;2023-08-31T12:01:21;22.50;99.90
61400;DHT22;47269;48.182;-1.946;2023-08-31T12:03:47;23.20;99.90
61400;DHT22;47269;48.182;-1.946;2023-08-31T12:06:16;23.30;99.90
61400;DHT22;47269;48.182;-1.946;2023-08-31T12:08:43;23.30;99.90
61400;DHT22;47269;48.182;-1.946;2023-08-31T12:11:09;23.60;99.90
61400;DHT22;47269;48.182;-1.946;2023-08-31T12:13:35;23.80;99.90
61400;DHT22;47269;48.182;-1.946;2023-08-31T12:16:00;23.70;99.90
61400;DHT22;47269;48.182;-1.946;2023-08-31T12:18:36;23.80;99.90
61400;DHT22;47269;48.182;-1.946;2023-08-31T12:21:02;24.30;99.90
61400;DHT22;47269;48.182;-1.946;2023-08-31T12:23:31;24.10;99.90
61400;DHT22;47269;48.182;-1.946;2023-08-31T12:25:57;23.90;99.90
61400;DHT22;47269;48.182;-1.946;2023-08-31T12:28:23;23.70;99.90
61400;DHT22;47269;48.182;-1.946;2023-08-31T12:30:53;24.10;99.90
61400;DHT22;47269;48.182;-1.946;2023-08-31T12:33:20;24.40;99.90
61400;DHT22;47269;48.182;-1.946;2023-08-31T12:35:46;24.30;99.90
61400;DHT22;47269;48.182;-1.946;2023-08-31T12:38:13;25.40;99.90
61400;DHT22;47269;48.182;-1.946;2023-08-31T12:40:38;26.80;99.90
61400;DHT22;47269;48.182;-1.946;2023-08-31T12:43:05;27.90;99.90
61400;DHT22;47269;48.182;-1.946;2023-08-31T12:45:30;28.00;99.90
61400;DHT22;47269;48.182;-1.946;2023-08-31T12:47:56;29.20;99.90
61400;DHT22;47269;48.182;-1.946;2023-08-31T12:50:22;26.60;99.90
61400;DHT22;47269;48.182;-1.946;2023-08-31T12:52:48;26.50;99.90
61400;DHT22;47269;48.182;-1.946;2023-08-31T12:55:14;26.70;99.90
61400;DHT22;47269;48.182;-1.946;2023-08-31T12:57:40;26.30;99.90
61400;DHT22;47269;48.182;-1.946;2023-08-31T13:00:10;25.60;99.90
61400;DHT22;47269;48.182;-1.946;2023-08-31T13:02:40;25.80;99.90
61400;DHT22;47269;48.182;-1.946;2023-08-31T13:05:06;26.10;99.90
61400;DHT22;47269;48.182;-1.946;2023-08-31T13:07:34;25.90;99.90
61400;DHT22;47269;48.182;-1.946;2023-08-31T13:10:01;25.90;99.90
61400;DHT22;47269;48.182;-1.946;2023-08-31T13:12:29;25.80;99.90
61400;DHT22;47269;48.182;-1.946;2023-08-31T13:14:55;25.90;99.90
61400;DHT22;47269;48.182;-1.946;2023-08-31T13:17:21;25.90;99.90
61400;DHT22;47269;48.182;-1.946;2023-08-31T13:19:48;25.70;99.90
61400;DHT22;47269;48.182;-1.946;2023-08-31T13:22:14;25.10;99.90
61400;DHT22;47269;48.182;-1.946;2023-08-31T13:24:41;25.30;99.90
61400;DHT22;47269;48.182;-1.946;2023-08-31T13:27:07;25.00;99.90
61400;DHT22;47269;48.182;-1.946;2023-08-31T13:29:33;24.80;99.90
61400;DHT22;47269;48.182;-1.946;2023-08-31T13:31:58;25.00;99.90
61400;DHT22;47269;48.182;-1.946;2023-08-31T13:34:24;24.90;99.90
61400;DHT22;47269;48.182;-1.946;2023-08-31T13:36:50;26.20;99.90
61400;DHT22;47269;48.182;-1.946;2023-08-31T13:39:15;26.60;99.90
61400;DHT22;47269;48.182;-1.946;2023-08-31T13:41:41;26.50;99.90
61400;DHT22;47269;48.182;-1.946;2023-08-31T13:44:07;26.40;99.90
61400;DHT22;47269;48.182;-1.946;2023-08-31T13:46:33;26.00;99.90
61400;DHT22;47269;48.182;-1.946;2023-08-31T13:48:58;25.70;99.90
61400;DHT22;47269;48.182;-1.946;2023-08-31T13:51:24;25.60;99.90
61400;DHT22;47269;48.182;-1.946;2023-08-31T13:53:50;24.50;99.90
61400;DHT22;47269;48.182;-1.946;2023-08-31T13:56:15;24.10;99.90
61400;DHT22;47269;48.182;-1.946;2023-08-31T13:58:41;23.40;99.90
61400;DHT22;47269;48.182;-1.946;2023-08-31T14:01:07;22.80;99.90
61400;DHT22;47269;48.182;-1.946;2023-08-31T14:03:32;22.40;99.90
61400;DHT22;47269;48.182;-1.946;2023-08-31T14:05:58;22.10;99.90
61400;DHT22;47269;48.182;-1.946;2023-08-31T14:08:24;21.90;99.90
61400;DHT22;47269;48.182;-1.946;2023-08-31T14:10:49;21.80;99.90
61400;DHT22;47269;48.182;-1.946;2023-08-31T14:13:15;21.70;99.90
61400;DHT22;47269;48.182;-1.946;2023-08-31T14:15:45;21.90;99.90
61400;DHT22;47269;48.182;-1.946;2023-08-31T14:18:12;22.00;99.90
61400;DHT22;47269;48.182;-1.946;2023-08-31T14:20:39;22.30;99.90
61400;DHT22;47269;48.182;-1.946;2023-08-31T14:23:05;22.60;99.90
61400;DHT22;47269;48.182;-1.946;2023-08-31T14:25:37;22.30;99.90
61400;DHT22;47269;48.182;-1.946;2023-08-31T14:28:06;22.50;99.90
61400;DHT22;47269;48.182;-1.946;2023-08-31T14:30:32;22.90;99.90
61400;DHT22;47269;48.182;-1.946;2023-08-31T14:32:57;23.00;99.90
61400;DHT22;47269;48.182;-1.946;2023-08-31T14:35:23;23.60;99.90
61400;DHT22;47269;48.182;-1.946;2023-08-31T14:37:49;23.70;99.90
61400;DHT22;47269;48.182;-1.946;2023-08-31T14:40:14;23.40;99.90
61400;DHT22;47269;48.182;-1.946;2023-08-31T14:42:40;23.40;99.90
61400;DHT22;47269;48.182;-1.946;2023-08-31T14:45:06;23.20;99.90
61400;DHT22;47269;48.182;-1.946;2023-08-31T14:47:32;23.40;99.90
61400;DHT22;47269;48.182;-1.946;2023-08-31T14:49:58;23.20;99.90
61400;DHT22;47269;48.182;-1.946;2023-08-31T14:52:24;23.30;99.90
61400;DHT22;47269;48.182;-1.946;2023-08-31T14:54:49;23.40;99.90
61400;DHT22;47269;48.182;-1.946;2023-08-31T14:57:15;23.70;99.90
61400;DHT22;47269;48.182;-1.946;2023-08-31T14:59:41;23.80;99.90
61400;DHT22;47269;48.182;-1.946;2023-08-31T15:02:07;23.70;99.90
61400;DHT22;47269;48.182;-1.946;2023-08-31T15:04:33;24.00;99.90
61400;DHT22;47269;48.182;-1.946;2023-08-31T15:06:59;23.70;99.90
61400;DHT22;47269;48.182;-1.946;2023-08-31T15:09:25;23.50;99.90
61400;DHT22;47269;48.182;-1.946;2023-08-31T15:11:51;23.40;99.90
61400;DHT22;47269;48.182;-1.946;2023-08-31T15:14:17;23.30;99.90
61400;DHT22;47269;48.182;-1.946;2023-08-31T15:16:43;23.10;99.90
61400;DHT22;47269;48.182;-1.946;2023-08-31T15:19:09;23.00;99.90
61400;DHT22;47269;48.182;-1.946;2023-08-31T15:21:34;22.70;99.90
61400;DHT22;47269;48.182;-1.946;2023-08-31T15:24:01;22.60;99.90
61400;DHT22;47269;48.182;-1.946;2023-08-31T15:26:28;22.40;99.90
61400;DHT22;47269;48.182;-1.946;2023-08-31T15:28:53;22.50;99.90
61400;DHT22;47269;48.182;-1.946;2023-08-31T15:31:19;22.60;99.90
61400;DHT22;47269;48.182;-1.946;2023-08-31T15:33:45;22.70;99.90
61400;DHT22;47269;48.182;-1.946;2023-08-31T15:36:11;22.70;99.90
61400;DHT22;47269;48.182;-1.946;2023-08-31T15:38:37;22.80;99.90
61400;DHT22;47269;48.182;-1.946;2023-08-31T15:41:04;22.80;99.90
61400;DHT22;47269;48.182;-1.946;2023-08-31T15:43:32;22.70;99.90
61400;DHT22;47269;48.182;-1.946;2023-08-31T15:45:59;22.50;99.90
61400;DHT22;47269;48.182;-1.946;2023-08-31T15:48:25;22.50;99.90
61400;DHT22;47269;48.182;-1.946;2023-08-31T15:50:55;22.30;99.90
61400;DHT22;47269;48.182;-1.946;2023-08-31T15:53:21;22.10;99.90
61400;DHT22;47269;48.182;-1.946;2023-08-31T15:55:48;22.10;99.90
61400;DHT22;47269;48.182;-1.946;2023-08-31T15:58:14;22.10;99.90
61400;DHT22;47269;48.182;-1.946;2023-08-31T16:00:40;22.00;99.90
61400;DHT22;47269;48.182;-1.946;2023-08-31T16:03:06;22.00;99.90
61400;DHT22;47269;48.182;-1.946;2023-08-31T16:05:33;21.80;99.90
61400;DHT22;47269;48.182;-1.946;2023-08-31T16:08:00;21.80;99.90
61400;DHT22;47269;48.182;-1.946;2023-08-31T16:10:26;21.80;99.90
61400;DHT22;47269;48.182;-1.946;2023-08-31T16:12:53;21.70;99.90
61400;DHT22;47269;48.182;-1.946;2023-08-31T16:15:19;21.50;99.90
61400;DHT22;47269;48.182;-1.946;2023-08-31T16:17:45;21.40;99.90
61400;DHT22;47269;48.182;-1.946;2023-08-31T16:20:11;21.50;99.90
61400;DHT22;47269;48.182;-1.946;2023-08-31T16:22:37;21.50;99.90
61400;DHT22;47269;48.182;-1.946;2023-08-31T16:25:04;21.60;99.90
61400;DHT22;47269;48.182;-1.946;2023-08-31T16:27:30;21.60;99.90
61400;DHT22;47269;48.182;-1.946;2023-08-31T16:29:57;21.80;99.90
61400;DHT22;47269;48.182;-1.946;2023-08-31T16:32:22;22.00;99.90
61400;DHT22;47269;48.182;-1.946;2023-08-31T16:34:52;22.10;99.90
61400;DHT22;47269;48.182;-1.946;2023-08-31T16:37:19;22.20;99.90
61400;DHT22;47269;48.182;-1.946;2023-08-31T16:39:44;22.00;99.90
61400;DHT22;47269;48.182;-1.946;2023-08-31T16:42:10;21.70;99.90
61400;DHT22;47269;48.182;-1.946;2023-08-31T16:44:36;21.90;99.90
61400;DHT22;47269;48.182;-1.946;2023-08-31T16:47:02;21.80;99.90
61400;DHT22;47269;48.182;-1.946;2023-08-31T16:49:29;21.60;99.90
61400;DHT22;47269;48.182;-1.946;2023-08-31T16:51:55;21.40;99.90
61400;DHT22;47269;48.182;-1.946;2023-08-31T16:54:22;21.50;99.90
61400;DHT22;47269;48.182;-1.946;2023-08-31T16:56:48;21.40;99.90
61400;DHT22;47269;48.182;-1.946;2023-08-31T16:59:16;21.40;99.90
61400;DHT22;47269;48.182;-1.946;2023-08-31T17:01:42;21.20;99.90
61400;DHT22;47269;48.182;-1.946;2023-08-31T17:04:07;21.10;99.90
61400;DHT22;47269;48.182;-1.946;2023-08-31T17:06:33;21.00;99.90
61400;DHT22;47269;48.182;-1.946;2023-08-31T17:08:59;21.00;99.90
61400;DHT22;47269;48.182;-1.946;2023-08-31T17:11:24;21.10;99.90
61400;DHT22;47269;48.182;-1.946;2023-08-31T17:13:50;21.10;99.90
61400;DHT22;47269;48.182;-1.946;2023-08-31T17:16:16;21.10;99.90
61400;DHT22;47269;48.182;-1.946;2023-08-31T17:18:42;21.00;99.90
61400;DHT22;47269;48.182;-1.946;2023-08-31T17:21:07;21.20;99.90
61400;DHT22;47269;48.182;-1.946;2023-08-31T17:23:33;21.30;99.90
61400;DHT22;47269;48.182;-1.946;2023-08-31T17:26:01;21.20;99.90
61400;DHT22;47269;48.182;-1.946;2023-08-31T17:28:27;21.00;99.90
61400;DHT22;47269;48.182;-1.946;2023-08-31T17:30:53;20.90;99.90
61400;DHT22;47269;48.182;-1.946;2023-08-31T17:33:21;20.70;99.90
61400;DHT22;47269;48.182;-1.946;2023-08-31T17:35:50;20.60;99.90
61400;DHT22;47269;48.182;-1.946;2023-08-31T17:38:16;20.70;99.90
61400;DHT22;47269;48.182;-1.946;2023-08-31T17:40:42;20.80;99.90
61400;DHT22;47269;48.182;-1.946;2023-08-31T17:43:09;20.80;99.90
61400;DHT22;47269;48.182;-1.946;2023-08-31T17:45:35;20.90;99.90
61400;DHT22;47269;48.182;-1.946;2023-08-31T17:48:00;20.90;99.90
61400;DHT22;47269;48.182;-1.946;2023-08-31T17:50:26;20.80;99.90
61400;DHT22;47269;48.182;-1.946;2023-08-31T17:52:52;20.60;99.90
61400;DHT22;47269;48.182;-1.946;2023-08-31T17:55:17;20.60;99.90
61400;DHT22;47269;48.182;-1.946;2023-08-31T17:57:43;20.40;99.90
61400;DHT22;47269;48.182;-1.946;2023-08-31T18:00:10;20.30;99.90
61400;DHT22;47269;48.182;-1.946;2023-08-31T18:02:36;20.20;99.90
61400;DHT22;47269;48.182;-1.946;2023-08-31T18:05:02;20.00;99.90
61400;DHT22;47269;48.182;-1.946;2023-08-31T18:07:29;20.00;99.90
61400;DHT22;47269;48.182;-1.946;2023-08-31T18:09:54;19.90;99.90
61400;DHT22;47269;48.182;-1.946;2023-08-31T18:12:20;19.90;99.90
61400;DHT22;47269;48.182;-1.946;2023-08-31T18:14:45;19.80;99.90
61400;DHT22;47269;48.182;-1.946;2023-08-31T18:17:12;19.80;99.90
61400;DHT22;47269;48.182;-1.946;2023-08-31T18:19:37;19.80;99.90
61400;DHT22;47269;48.182;-1.946;2023-08-31T18:22:03;19.70;99.90
61400;DHT22;47269;48.182;-1.946;2023-08-31T18:24:29;19.70;99.90
61400;DHT22;47269;48.182;-1.946;2023-08-31T18:26:55;19.60;99.90
61400;DHT22;47269;48.182;-1.946;2023-08-31T18:29:20;19.40;99.90
61400;DHT22;47269;48.182;-1.946;2023-08-31T18:31:46;19.40;99.90
61400;DHT22;47269;48.182;-1.946;2023-08-31T18:34:13;19.50;99.90
61400;DHT22;47269;48.182;-1.946;2023-08-31T18:36:38;19.40;99.90
61400;DHT22;47269;48.182;-1.946;2023-08-31T18:39:05;19.30;99.90
61400;DHT22;47269;48.182;-1.946;2023-08-31T18:41:35;19.30;99.90
61400;DHT22;47269;48.182;-1.946;2023-08-31T18:44:01;19.30;99.90
61400;DHT22;47269;48.182;-1.946;2023-08-31T18:46:27;19.30;99.90
61400;DHT22;47269;48.182;-1.946;2023-08-31T18:48:53;19.30;99.90
61400;DHT22;47269;48.182;-1.946;2023-08-31T18:51:18;19.20;99.90
61400;DHT22;47269;48.182;-1.946;2023-08-31T18:53:44;19.30;99.90
61400;DHT22;47269;48.182;-1.946;2023-08-31T18:56:10;19.20;99.90
61400;DHT22;47269;48.182;-1.946;2023-08-31T18:58:35;19.20;99.90
61400;DHT22;47269;48.182;-1.946;2023-08-31T19:01:02;19.10;99.90
61400;DHT22;47269;48.182;-1.946;2023-08-31T19:03:31;19.10;99.90
61400;DHT22;47269;48.182;-1.946;2023-08-31T19:05:57;19.10;99.90
61400;DHT22;47269;48.182;-1.946;2023-08-31T19:08:23;19.00;99.90
61400;DHT22;47269;48.182;-1.946;2023-08-31T19:10:48;18.90;99.90
61400;DHT22;47269;48.182;-1.946;2023-08-31T19:13:14;19.00;99.90
61400;DHT22;47269;48.182;-1.946;2023-08-31T19:15:40;19.00;99.90
61400;DHT22;47269;48.182;-1.946;2023-08-31T19:18:06;18.90;99.90
61400;DHT22;47269;48.182;-1.946;2023-08-31T19:20:33;18.90;99.90
61400;DHT22;47269;48.182;-1.946;2023-08-31T19:22:59;19.00;99.90
61400;DHT22;47269;48.182;-1.946;2023-08-31T19:25:25;18.90;99.90
61400;DHT22;47269;48.182;-1.946;2023-08-31T19:28:03;18.90;99.90
61400;DHT22;47269;48.182;-1.946;2023-08-31T19:30:29;18.90;99.90
61400;DHT22;47269;48.182;-1.946;2023-08-31T19:32:56;18.80;99.90
61400;DHT22;47269;48.182;-1.946;2023-08-31T19:35:23;18.90;99.90
61400;DHT22;47269;48.182;-1.946;2023-08-31T19:37:50;18.90;99.90
61400;DHT22;47269;48.182;-1.946;2023-08-31T19:40:20;18.90;99.90
61400;DHT22;47269;48.182;-1.946;2023-08-31T19:42:46;18.80;99.90
61400;DHT22;47269;48.182;-1.946;2023-08-31T19:45:13;18.80;99.90
61400;DHT22;47269;48.182;-1.946;2023-08-31T19:47:39;18.80;99.90
61400;DHT22;47269;48.182;-1.946;2023-08-31T19:50:06;18.80;99.90
61400;DHT22;47269;48.182;-1.946;2023-08-31T19:52:50;18.70;99.90
61400;DHT22;47269;48.182;-1.946;2023-08-31T19:55:16;18.70;99.90
61400;DHT22;47269;48.182;-1.946;2023-08-31T19:57:41;18.70;99.90
61400;DHT22;47269;48.182;-1.946;2023-08-31T20:00:08;18.70;99.90
61400;DHT22;47269;48.182;-1.946;2023-08-31T20:02:34;18.60;99.90
61400;DHT22;47269;48.182;-1.946;2023-08-31T20:05:00;18.60;99.90
61400;DHT22;47269;48.182;-1.946;2023-08-31T20:07:26;18.60;99.90
61400;DHT22;47269;48.182;-1.946;2023-08-31T20:09:52;18.60;99.90
61400;DHT22;47269;48.182;-1.946;2023-08-31T20:12:18;18.60;99.90
61400;DHT22;47269;48.182;-1.946;2023-08-31T20:14:44;18.50;99.90
61400;DHT22;47269;48.182;-1.946;2023-08-31T20:17:10;18.50;99.90
61400;DHT22;47269;48.182;-1.946;2023-08-31T20:19:35;18.50;99.90
61400;DHT22;47269;48.182;-1.946;2023-08-31T20:22:01;18.50;99.90
61400;DHT22;47269;48.182;-1.946;2023-08-31T20:24:27;18.50;99.90
61400;DHT22;47269;48.182;-1.946;2023-08-31T20:26:53;18.60;99.90
61400;DHT22;47269;48.182;-1.946;2023-08-31T20:29:19;18.50;99.90
61400;DHT22;47269;48.182;-1.946;2023-08-31T20:31:45;18.40;99.90
61400;DHT22;47269;48.182;-1.946;2023-08-31T20:34:11;18.40;99.90
61400;DHT22;47269;48.182;-1.946;2023-08-31T20:36:37;18.40;99.90
61400;DHT22;47269;48.182;-1.946;2023-08-31T20:39:04;18.40;99.90
61400;DHT22;47269;48.182;-1.946;2023-08-31T20:41:33;18.40;99.90
61400;DHT22;47269;48.182;-1.946;2023-08-31T20:44:01;18.40;99.90
61400;DHT22;47269;48.182;-1.946;2023-08-31T20:46:28;18.40;99.90
61400;DHT22;47269;48.182;-1.946;2023-08-31T20:48:54;18.40;99.90
61400;DHT22;47269;48.182;-1.946;2023-08-31T20:51:20;18.40;99.90
61400;DHT22;47269;48.182;-1.946;2023-08-31T20:53:46;18.40;99.90
61400;DHT22;47269;48.182;-1.946;2023-08-31T20:56:13;18.40;99.90
61400;DHT22;47269;48.182;-1.946;2023-08-31T20:58:40;18.30;99.90
61400;DHT22;47269;48.182;-1.946;2023-08-31T21:01:07;18.30;99.90
61400;DHT22;47269;48.182;-1.946;2023-08-31T21:03:36;18.20;99.90
61400;DHT22;47269;48.182;-1.946;2023-08-31T21:06:02;18.30;99.90
61400;DHT22;47269;48.182;-1.946;2023-08-31T21:08:27;18.30;99.90
61400;DHT22;47269;48.182;-1.946;2023-08-31T21:10:53;18.30;99.90
61400;DHT22;47269;48.182;-1.946;2023-08-31T21:13:21;18.30;99.90
61400;DHT22;47269;48.182;-1.946;2023-08-31T21:15:47;18.40;99.90
61400;DHT22;47269;48.182;-1.946;2023-08-31T21:18:12;18.40;99.90
61400;DHT22;47269;48.182;-1.946;2023-08-31T21:20:38;18.40;99.90
61400;DHT22;47269;48.182;-1.946;2023-08-31T21:23:04;18.40;99.90
61400;DHT22;47269;48.182;-1.946;2023-08-31T21:25:31;18.40;99.90
61400;DHT22;47269;48.182;-1.946;2023-08-31T21:27:57;18.40;99.90
61400;DHT22;47269;48.182;-1.946;2023-08-31T21:30:23;18.40;99.90